La Paz/El Alto International Airport

Airport
ICAO code: 
SLLP
IATA Code: 
LPB
Summary
ICAO Region: 
CARSAM
Territory: 
Location: 
El Alto, La Paz
Serving: 
La Paz
Elevation: 
13325 ft
Coordinates: 
Aerial View: 
16° 30' 48" S, 68° 11' 32" W
Airport RE: 
Hot and High Operations
Metar
Observation
SLLP 042200Z 08005KT 9999 VCTS SCT017 FEW020CB SCT070 BKN200 11/06 Q1035
Station
La Paz / Alto
Date/Time
2021-12-04 22:00:00
Wind direction
80°
Wind speed
05 kts
Lowest cloud amount
scattered clouds
Temperature
11°C
Dew point
6°C
Humidity
71%
QNH
1035 hPa
Weather condition
in vicinity: thunderstorm

International airport serving La Paz, Bolivia.

Climatology

Sub-tropical Highland climate (Köppen climate classification Cwb) - In the tropics, a Subtropical Highland climate tends to feature spring-like weather year-round. Average temperatures here remain relatively constant throughout the year but with a significant diurnal variation.

Runways

Designator Length Width Surface Rops
10L/28R 2050 91 GRE No/No
10/28 4000 46 CON Yes/Yes
Airport map: 
Aerial View: 

SKYbrary Partners:

Safety knowledge contributed by: